アトランタ の空港の天気 - METARとTAF

ハーツフィールド・ジャクソン・アトランタ国際空港 ( KATL / ATL ) - アメリカ合衆国 ジョージア州アトランタ
飛行場実況気象(Metar)
観測時間01/20 11:52 EST (01/20 16:52 UTC)
風向・風速西 6m/s 瞬間風速10m/s
視程10km以上
天気現象
少しの雲 雲底高度 760m
少しの雲 雲底高度 1520m
全天の4割程度の雲 雲底高度 7620m
気温20℃
湿度65%
気圧1011.5hPa
METARKATL 201652Z 26011G19KT 10SM FEW025 FEW050 SCT250 20/13 A2988 RMK AO2 SLP115 T02000133
過去の天気等 Google飛行場航空写真 Wunderground天気予報

過去48時間のMETAR

飛行場予報(TAF)
発表時間: 1/20 12:51 EST (1/20 17:51 UTC)
予報対象時間: 20日13時 EST ~ 21日19時 EST
風向・風速西南西 5m/s 瞬間風速 9m/s
視程10km以上
全天の4割程度の雲 雲底高度 760m
全天の8割程度の雲 雲底高度 1,070m
20日17時 EST から
風向・風速西南西 5m/s
視程10km以上
全天の8割程度の雲 雲底高度 1,070m
20日21時 EST から
風向・風速南南西 3m/s
視程10km以上
全天の4割程度の雲 雲底高度 210m
全天を覆う雲 雲底高度 760m
20日23時 EST から
風向・風速南 3m/s
視程10km以上
天気現象周辺でしゅう雨
全天の8割程度の雲 雲底高度 210m
全天を覆う雲 雲底高度 460m
21日1時 EST から
風向・風速南西 3m/s
視程6,440m
天気現象もや 周辺でしゅう雨
全天を覆う雲 雲底高度 120m
21日7時 EST から
風向・風速西 3m/s
視程4,830m
天気現象弱い雷雨
全天の8割程度の雲 雲底高度 120m
全天を覆う積乱雲 雲底高度 460m
21日10時 EST から
風向・風速南 3m/s
視程8,050m
天気現象弱い雷雨
全天の8割程度の雲 雲底高度 210m
全天を覆う積乱雲 雲底高度 300m
KATL 201751Z 2018/2124 24010G18KT P6SM SCT025 BKN035
FM202200 24010KT P6SM BKN035
FM210200 20005KT P6SM SCT007 OVC025
FM210400 19006KT P6SM VCSH BKN007 OVC015
FM210600 23005KT 4SM BR VCSH OVC004
FM211200 26005KT 3SM -TSRA BKN004 OVC015CB
FM211500 17005KT 5SM -TSRA BKN007 OVC010CB